Manoa — KDBG — position and weather

sailwx.info

Track history (hours):
 
Tides and Currents Weather Stations Pressure Air Temp Water Temp Dewpoint Dewpoint Depression Visibility Wind Speed Wind Dir Waves Ship Positions

Manoa

More information available from US FCC via Universal Licensing System and Coast Guard Vessel Documentation Center.

Last reported at 2014-Jul-28 20:33 UTC. Time now 2014-Jul-28 20:38 UTC.
Position N 37°53' W 123°02'.

Type: Cargo ship. MMSI: 366562000.

Date/timePositionNaut miles runAvg speedWind from/ knotsBaromVisibWave heightAir tempDewpointWater temp
2014-Jul-28 20:33N 37°53' W 123°02'1817.5
2014-Jul-28 19:33N 38°04' W 123°19'1717.5
2014-Jul-28 18:33N 38°13' W 123°38'1716.8
2014-Jul-28 17:33N 38°22' W 123°56'2019.9
2014-Jul-28 16:33N 38°35' W 124°16'2423.9
2014-Jul-28 15:33N 38°57' W 124°25'2623.7
2014-Jul-28 14:29N 39°21' W 124°36'5323.6
2014-Jul-28 12:14N 40°12' W 124°57'25824.1
2014-Jul-28 01:30N 44°30' W 125°13'2324.2
2014-Jul-28 00:33N 44°53' W 125°14'2824.2
2014-Jul-27 23:25N 45°20' W 125°16'4624.3
2014-Jul-27 21:33N 46°06' W 125°18'2623.8
2014-Jul-27 20:28N 46°31' W 125°20'5123.8
2014-Jul-27 18:21N 47°22' W 125°21'4523.3
2014-Jul-27 16:25N 48°06' W 125°17'2023.1
2014-Jul-27 15:33N 48°25' W 125°06'4722.2
2014-Jul-27 13:26N 48°18' W 123°56'1820.2
2014-Jul-27 12:33N 48°15' W 123°30'1211.5
2014-Jul-27 11:32N 48°11' W 123°14'1918.9
2014-Jul-27 10:32N 48°10' W 122°45'2020.5
2014-Jul-27 09:34N 47°54' W 122°29'1717.0
2014-Jul-27 08:34N 47°37' W 122°24'3 3.0
2014-Jul-27 07:34N 47°35' W 122°21'0 0.0
2014-Jul-27 06:34N 47°35' W 122°21'0 0.0
2014-Jul-27 05:34N 47°35' W 122°21'0 0.0
2014-Jul-27 04:32N 47°35' W 122°21'0 0.0
2014-Jul-27 03:32N 47°35' W 122°21'0 0.0
2014-Jul-27 02:32N 47°35' W 122°21'0 0.0
2014-Jul-27 01:32N 47°35' W 122°21'0 0.0
2014-Jul-27 00:32N 47°35' W 122°21'0 0.0
2014-Jul-26 23:32N 47°35' W 122°21'0 0.0
2014-Jul-26 22:32N 47°35' W 122°21'0 0.0
2014-Jul-26 21:32N 47°35' W 122°21'0 0.0
2014-Jul-26 20:32N 47°35' W 122°21'0 0.0
2014-Jul-26 19:32N 47°35' W 122°21'0 0.0
2014-Jul-26 18:26N 47°35' W 122°21'0 0.0
2014-Jul-26 17:32N 47°35' W 122°21'0 0.0
2014-Jul-26 16:32N 47°35' W 122°21'0 0.0
2014-Jul-26 15:32N 47°35' W 122°21'0 0.0
2014-Jul-26 14:32N 47°35' W 122°21'0 0.0
2014-Jul-26 13:32N 47°35' W 122°21'0 0.0
2014-Jul-26 12:32N 47°35' W 122°21'1 1.4
2014-Jul-26 11:33N 47°36' W 122°22'9 8.7
2014-Jul-26 10:33N 47°44' W 122°27'1818.3
2014-Jul-26 09:33N 48°01' W 122°38'1919.4
2014-Jul-26 08:33N 48°12' W 123°02'1616.3
2014-Jul-26 07:34N 48°10' W 123°26'1312.9
2014-Jul-26 06:33N 48°13' W 123°45'2121.4
2014-Jul-26 05:33N 48°19' W 124°15'2323.1
2014-Jul-26 04:34N 48°29' W 124°47'2323.0
2014-Jul-26 03:34N 48°23' W 125°21'2424.3
2014-Jul-26 02:33N 48°09' W 125°51'  
Track history (hours):
 
Tides and Currents Weather Stations Pressure Air Temp Water Temp Dewpoint Dewpoint Depression Visibility Wind Speed Wind Dir Waves Ship Positions

Manoa

More information available from US FCC via Universal Licensing System and Coast Guard Vessel Documentation Center.

Last reported at 2014-Jul-28 20:33 UTC. Time now 2014-Jul-28 20:38 UTC.
Position N 37°53' W 123°02'.

Type: Cargo ship. MMSI: 366562000.

Date/timePositionNaut miles runAvg speedWind from/ knotsBaromVisibWave heightAir tempDewpointWater temp
2014-Jul-28 20:33N 37°53' W 123°02'1817.5
2014-Jul-28 19:33N 38°04' W 123°19'1717.5
2014-Jul-28 18:33N 38°13' W 123°38'1716.8
2014-Jul-28 17:33N 38°22' W 123°56'2019.9
2014-Jul-28 16:33N 38°35' W 124°16'2423.9
2014-Jul-28 15:33N 38°57' W 124°25'2623.7
2014-Jul-28 14:29N 39°21' W 124°36'5323.6
2014-Jul-28 12:14N 40°12' W 124°57'25824.1
2014-Jul-28 01:30N 44°30' W 125°13'2324.2
2014-Jul-28 00:33N 44°53' W 125°14'2824.2
2014-Jul-27 23:25N 45°20' W 125°16'4624.3
2014-Jul-27 21:33N 46°06' W 125°18'2623.8
2014-Jul-27 20:28N 46°31' W 125°20'5123.8
2014-Jul-27 18:21N 47°22' W 125°21'4523.3
2014-Jul-27 16:25N 48°06' W 125°17'2023.1
2014-Jul-27 15:33N 48°25' W 125°06'4722.2
2014-Jul-27 13:26N 48°18' W 123°56'1820.2
2014-Jul-27 12:33N 48°15' W 123°30'1211.5
2014-Jul-27 11:32N 48°11' W 123°14'1918.9
2014-Jul-27 10:32N 48°10' W 122°45'2020.5
2014-Jul-27 09:34N 47°54' W 122°29'1717.0
2014-Jul-27 08:34N 47°37' W 122°24'3 3.0
2014-Jul-27 07:34N 47°35' W 122°21'0 0.0
2014-Jul-27 06:34N 47°35' W 122°21'0 0.0
2014-Jul-27 05:34N 47°35' W 122°21'0 0.0
2014-Jul-27 04:32N 47°35' W 122°21'0 0.0
2014-Jul-27 03:32N 47°35' W 122°21'0 0.0
2014-Jul-27 02:32N 47°35' W 122°21'0 0.0
2014-Jul-27 01:32N 47°35' W 122°21'0 0.0
2014-Jul-27 00:32N 47°35' W 122°21'0 0.0
2014-Jul-26 23:32N 47°35' W 122°21'0 0.0
2014-Jul-26 22:32N 47°35' W 122°21'0 0.0
2014-Jul-26 21:32N 47°35' W 122°21'0 0.0
2014-Jul-26 20:32N 47°35' W 122°21'0 0.0
2014-Jul-26 19:32N 47°35' W 122°21'0 0.0
2014-Jul-26 18:26N 47°35' W 122°21'0 0.0
2014-Jul-26 17:32N 47°35' W 122°21'0 0.0
2014-Jul-26 16:32N 47°35' W 122°21'0 0.0
2014-Jul-26 15:32N 47°35' W 122°21'0 0.0
2014-Jul-26 14:32N 47°35' W 122°21'0 0.0
2014-Jul-26 13:32N 47°35' W 122°21'0 0.0
2014-Jul-26 12:32N 47°35' W 122°21'1 1.4
2014-Jul-26 11:33N 47°36' W 122°22'9 8.7
2014-Jul-26 10:33N 47°44' W 122°27'1818.3
2014-Jul-26 09:33N 48°01' W 122°38'1919.4
2014-Jul-26 08:33N 48°12' W 123°02'1616.3
2014-Jul-26 07:34N 48°10' W 123°26'1312.9
2014-Jul-26 06:33N 48°13' W 123°45'2121.4
2014-Jul-26 05:33N 48°19' W 124°15'2323.1
2014-Jul-26 04:34N 48°29' W 124°47'2323.0
2014-Jul-26 03:34N 48°23' W 125°21'2424.3
2014-Jul-26 02:33N 48°09' W 125°51'  

Dump ship's entire track history